Time;durP1;ratioP1;P1;durP2;ratioP2;P2;SDS_P1;SDS_P2;PMS_P1;PMS_P2;Temp;Humidity;BMP_temperature;BMP_pressure;BME280_temperature;BME280_humidity;BME280_pressure;Samples;Min_cycle;Max_cycle;Signal;HPM_P1;HPM_P2
2023/05/21 00:00:42;;;;;;;;;;;14.40;84.80;;;;;;5046807;28;19955;-67
2023/05/21 00:03:12;;;;;;;;;;;14.40;84.80;;;;;;5046996;28;19955;-67
2023/05/21 00:05:39;;;;;;;;;;;14.40;85.10;;;;;;5046779;28;19952;-66
2023/05/21 00:08:04;;;;;;;;;;;14.40;85.10;;;;;;5047109;28;19962;-67
2023/05/21 00:10:30;;;;;;;;;;;14.40;85.00;;;;;;5046938;28;20339;-67
2023/05/21 00:12:55;;;;;;;;;;;14.40;85.20;;;;;;5045735;28;19919;-67
2023/05/21 00:15:21;;;;;;;;;;;14.40;85.30;;;;;;5046854;28;19940;-67
2023/05/21 00:17:46;;;;;;;;;;;14.30;84.80;;;;;;5046947;28;19913;-67
2023/05/21 00:20:12;;;;;;;;;;;14.30;85.10;;;;;;5029057;28;19920;-67
2023/05/21 00:22:39;;;;;;;;;;;14.30;85.20;;;;;;5046788;28;19921;-67
2023/05/21 00:25:05;;;;;;;;;;;14.30;85.20;;;;;;5028692;28;20478;-66
2023/05/21 00:27:30;;;;;;;;;;;14.30;85.30;;;;;;5029102;28;20008;-67
2023/05/21 00:29:56;;;;;;;;;;;14.30;85.40;;;;;;5046509;28;20004;-67
2023/05/21 00:32:22;;;;;;;;;;;14.30;85.30;;;;;;5046633;28;19916;-66
2023/05/21 00:34:47;;;;;;;;;;;14.30;85.40;;;;;;5046470;28;19913;-66
2023/05/21 00:37:14;;;;;;;;;;;14.20;85.70;;;;;;5046722;28;19913;-66
2023/05/21 00:39:39;;;;;;;;;;;14.20;85.30;;;;;;5046499;28;19944;-66
2023/05/21 00:42:05;;;;;;;;;;;14.20;85.50;;;;;;5046083;28;19940;-66
2023/05/21 00:44:33;;;;;;;;;;;14.20;85.90;;;;;;5045847;28;19913;-67
2023/05/21 00:47:02;;;;;;;;;;;14.20;85.70;;;;;;5046149;28;19917;-66
2023/05/21 00:49:28;;;;;;;;;;;14.20;85.90;;;;;;5046228;28;20011;-66
2023/05/21 00:51:54;;;;;;;;;;;14.10;86.10;;;;;;5046104;28;20007;-66
2023/05/21 00:54:20;;;;;;;;;;;14.10;85.90;;;;;;5045943;28;19920;-66
2023/05/21 00:56:46;;;;;;;;;;;14.20;85.60;;;;;;5046284;28;19912;-66
2023/05/21 00:59:12;;;;;;;;;;;14.10;85.90;;;;;;5046091;28;20408;-66
2023/05/21 01:01:37;;;;;;;;;;;14.10;85.40;;;;;;5046071;28;19923;-67
2023/05/21 01:04:03;;;;;;;;;;;14.10;86.00;;;;;;5045974;28;19999;-66
2023/05/21 01:06:29;;;;;;;;;;;14.10;85.90;;;;;;5045898;28;19973;-66
2023/05/21 01:08:55;;;;;;;;;;;14.10;86.00;;;;;;5045920;28;19916;-66
2023/05/21 01:11:22;;;;;;;;;;;14.00;85.90;;;;;;5045497;28;19959;-66
2023/05/21 01:13:48;;;;;;;;;;;14.10;86.50;;;;;;5045930;28;19946;-67
2023/05/21 01:16:16;;;;;;;;;;;14.00;85.80;;;;;;5046031;28;19909;-66
2023/05/21 01:18:43;;;;;;;;;;;14.00;86.30;;;;;;5045717;28;19959;-67
2023/05/21 01:21:09;;;;;;;;;;;14.00;86.30;;;;;;5045777;28;19927;-67
2023/05/21 01:23:35;;;;;;;;;;;14.00;86.40;;;;;;5045449;28;20011;-66
2023/05/21 01:26:00;;;;;;;;;;;14.00;86.10;;;;;;5045734;28;19916;-66
2023/05/21 01:28:26;;;;;;;;;;;14.00;86.20;;;;;;5045780;28;19987;-67
2023/05/21 01:30:51;;;;;;;;;;;14.00;86.50;;;;;;5027889;28;19916;-66
2023/05/21 01:33:19;;;;;;;;;;;13.90;86.30;;;;;;5013850;28;19958;-67
2023/05/21 01:35:48;;;;;;;;;;;13.90;86.40;;;;;;5042577;28;20338;-66
2023/05/21 01:38:18;;;;;;;;;;;13.90;86.50;;;;;;5045664;28;19909;-67
2023/05/21 01:40:45;;;;;;;;;;;13.90;86.10;;;;;;5045599;28;19916;-66
2023/05/21 01:43:11;;;;;;;;;;;13.90;86.80;;;;;;5045222;28;19912;-67
2023/05/21 01:45:38;;;;;;;;;;;13.90;86.40;;;;;;5044847;28;19920;-66
2023/05/21 01:48:05;;;;;;;;;;;13.90;86.70;;;;;;5045080;28;19908;-67
2023/05/21 01:50:31;;;;;;;;;;;13.90;86.50;;;;;;5027285;28;20355;-66
2023/05/21 01:52:57;;;;;;;;;;;13.90;86.40;;;;;;5045113;28;19934;-66
2023/05/21 01:55:26;;;;;;;;;;;13.90;86.80;;;;;;5045481;28;19924;-66
2023/05/21 01:57:53;;;;;;;;;;;13.80;86.70;;;;;;5027610;28;19920;-66
2023/05/21 02:00:22;;;;;;;;;;;13.90;87.60;;;;;;5045146;28;20560;-66
2023/05/21 02:02:48;;;;;;;;;;;13.80;86.70;;;;;;5045177;28;20569;-66
2023/05/21 02:05:14;;;;;;;;;;;13.80;86.70;;;;;;5044762;28;19920;-67
2023/05/21 02:07:39;;;;;;;;;;;13.80;86.70;;;;;;5045317;28;19920;-66
2023/05/21 02:10:06;;;;;;;;;;;13.80;86.50;;;;;;5045056;28;19913;-66
2023/05/21 02:12:32;;;;;;;;;;;13.80;86.50;;;;;;5045026;28;19967;-67
2023/05/21 02:14:58;;;;;;;;;;;13.80;86.50;;;;;;5045123;28;19944;-66
2023/05/21 02:17:24;;;;;;;;;;;13.80;86.20;;;;;;5045183;28;19913;-66
2023/05/21 02:19:50;;;;;;;;;;;13.70;86.70;;;;;;5045124;28;19913;-67
2023/05/21 02:22:16;;;;;;;;;;;13.70;86.90;;;;;;5044926;28;19943;-66
2023/05/21 02:24:41;;;;;;;;;;;13.70;86.70;;;;;;5044964;28;19970;-67
2023/05/21 02:27:09;;;;;;;;;;;13.70;87.00;;;;;;5045150;28;19916;-67
2023/05/21 02:29:37;;;;;;;;;;;13.70;87.10;;;;;;5044819;28;19995;-67
2023/05/21 02:32:03;;;;;;;;;;;13.70;87.20;;;;;;5044607;28;19924;-66
2023/05/21 02:34:31;;;;;;;;;;;13.70;86.70;;;;;;5045374;28;19913;-67
2023/05/21 02:36:57;;;;;;;;;;;13.70;86.90;;;;;;5048743;28;19920;-67
2023/05/21 02:39:23;;;;;;;;;;;13.70;87.10;;;;;;5048073;28;19912;-67
2023/05/21 02:41:48;;;;;;;;;;;13.70;87.20;;;;;;5047921;28;20380;-67
2023/05/21 02:44:14;;;;;;;;;;;13.60;87.10;;;;;;5047812;28;19999;-66
2023/05/21 02:46:39;;;;;;;;;;;13.60;87.80;;;;;;5029823;28;20399;-66
2023/05/21 02:49:05;;;;;;;;;;;13.70;87.70;;;;;;5048383;28;19982;-67
2023/05/21 02:51:31;;;;;;;;;;;13.60;87.50;;;;;;5048283;28;20441;-66
2023/05/21 02:53:56;;;;;;;;;;;13.60;87.30;;;;;;5047668;28;19913;-66
2023/05/21 02:56:22;;;;;;;;;;;13.60;87.70;;;;;;5048167;28;19912;-66
2023/05/21 02:58:47;;;;;;;;;;;13.60;87.70;;;;;;5048109;28;20000;-67
2023/05/21 03:01:13;;;;;;;;;;;13.60;87.80;;;;;;5029867;28;19947;-67
2023/05/21 03:03:38;;;;;;;;;;;13.60;87.80;;;;;;5047711;28;19916;-67
2023/05/21 03:06:04;;;;;;;;;;;13.50;88.30;;;;;;5029833;28;19924;-67
2023/05/21 03:08:30;;;;;;;;;;;13.50;88.40;;;;;;5029925;28;20601;-67
2023/05/21 03:10:56;;;;;;;;;;;13.50;88.10;;;;;;5047750;28;19913;-66
2023/05/21 03:13:21;;;;;;;;;;;13.50;88.10;;;;;;5047287;28;19913;-67
2023/05/21 03:15:47;;;;;;;;;;;13.50;87.70;;;;;;5030436;28;20273;-66
2023/05/21 03:18:12;;;;;;;;;;;13.50;88.10;;;;;;5047555;28;20296;-67
2023/05/21 03:20:43;;;;;;;;;;;13.50;88.00;;;;;;5041655;28;19909;-67
2023/05/21 03:23:11;;;;;;;;;;;13.50;88.30;;;;;;5031557;28;20013;-66
2023/05/21 03:25:37;;;;;;;;;;;13.50;88.40;;;;;;5046340;28;20011;-67
2023/05/21 03:28:02;;;;;;;;;;;13.50;88.60;;;;;;5078249;27;20007;-67
2023/05/21 03:30:28;;;;;;;;;;;13.50;88.20;;;;;;5029332;28;19913;-67
2023/05/21 03:32:55;;;;;;;;;;;13.50;88.10;;;;;;5047275;28;19916;-67
2023/05/21 03:35:20;;;;;;;;;;;13.40;88.20;;;;;;5047283;28;20631;-67
2023/05/21 03:37:46;;;;;;;;;;;13.40;88.30;;;;;;5047213;28;19959;-67
2023/05/21 03:40:12;;;;;;;;;;;13.40;88.50;;;;;;5041524;28;19919;-66
2023/05/21 03:42:37;;;;;;;;;;;13.40;88.30;;;;;;5045044;28;19913;-67
2023/05/21 03:45:03;;;;;;;;;;;13.40;88.30;;;;;;5047241;28;19912;-67
2023/05/21 03:47:28;;;;;;;;;;;13.40;88.10;;;;;;5045814;28;19944;-67
2023/05/21 03:49:54;;;;;;;;;;;13.40;88.70;;;;;;5047067;28;20367;-66
2023/05/21 03:52:19;;;;;;;;;;;13.40;88.50;;;;;;5046819;28;19995;-67
2023/05/21 03:54:45;;;;;;;;;;;13.40;88.10;;;;;;5047160;27;19913;-66
2023/05/21 03:57:11;;;;;;;;;;;13.40;87.90;;;;;;5062283;28;20009;-67
2023/05/21 03:59:36;;;;;;;;;;;13.40;88.30;;;;;;5046958;28;20016;-67
2023/05/21 04:02:02;;;;;;;;;;;13.40;88.10;;;;;;5046454;28;20380;-67
2023/05/21 04:04:28;;;;;;;;;;;13.40;88.10;;;;;;5028713;28;19912;-67
2023/05/21 04:06:54;;;;;;;;;;;13.40;88.30;;;;;;5046579;28;19923;-67
2023/05/21 04:09:19;;;;;;;;;;;13.30;88.10;;;;;;5046707;28;19913;-67
2023/05/21 04:11:46;;;;;;;;;;;13.40;88.00;;;;;;5046500;28;20023;-67
2023/05/21 04:14:11;;;;;;;;;;;13.30;87.90;;;;;;5046809;28;19942;-66
2023/05/21 04:16:37;;;;;;;;;;;13.30;88.30;;;;;;5045923;28;19912;-66
2023/05/21 04:19:03;;;;;;;;;;;13.30;87.60;;;;;;5046157;28;19919;-67
2023/05/21 04:21:28;;;;;;;;;;;13.30;88.00;;;;;;5045688;28;19993;-67
2023/05/21 04:23:56;;;;;;;;;;;13.30;87.70;;;;;;5046100;28;19976;-67
2023/05/21 04:26:22;;;;;;;;;;;13.40;87.70;;;;;;5045698;28;19917;-67
2023/05/21 04:28:49;;;;;;;;;;;13.30;87.60;;;;;;5046211;28;19913;-67
2023/05/21 04:31:14;;;;;;;;;;;13.30;87.70;;;;;;5046309;28;20010;-67
2023/05/21 04:33:44;;;;;;;;;;;13.30;87.80;;;;;;5046012;28;20089;-67
2023/05/21 04:36:10;;;;;;;;;;;13.30;87.70;;;;;;5046409;28;19917;-66
2023/05/21 04:38:36;;;;;;;;;;;13.30;87.70;;;;;;5046149;28;19981;-67
2023/05/21 04:41:05;;;;;;;;;;;13.40;87.90;;;;;;5046391;28;20623;-66
2023/05/21 04:43:31;;;;;;;;;;;13.40;87.70;;;;;;5046092;28;19920;-67
2023/05/21 04:45:56;;;;;;;;;;;13.30;88.30;;;;;;5028068;28;19909;-67
2023/05/21 04:48:23;;;;;;;;;;;13.40;87.90;;;;;;5045920;28;19981;-67
2023/05/21 04:50:49;;;;;;;;;;;13.40;87.90;;;;;;5027853;28;19965;-66
2023/05/21 04:53:15;;;;;;;;;;;13.40;87.90;;;;;;5045751;28;19969;-67
2023/05/21 04:55:41;;;;;;;;;;;13.40;87.90;;;;;;5046049;27;20330;-67
2023/05/21 04:58:06;;;;;;;;;;;13.40;87.90;;;;;;5045534;28;19969;-67
2023/05/21 05:00:36;;;;;;;;;;;13.40;88.00;;;;;;5045857;28;19959;-67
2023/05/21 05:03:02;;;;;;;;;;;13.40;87.90;;;;;;5045389;28;19909;-66
2023/05/21 05:05:27;;;;;;;;;;;13.40;87.90;;;;;;5045572;28;19920;-67
2023/05/21 05:07:53;;;;;;;;;;;13.40;87.80;;;;;;5045582;28;19917;-66
2023/05/21 05:10:18;;;;;;;;;;;13.40;87.90;;;;;;5045753;28;19909;-67
2023/05/21 05:12:44;;;;;;;;;;;13.40;87.80;;;;;;5045791;28;19912;-67
2023/05/21 05:15:09;;;;;;;;;;;13.40;87.80;;;;;;5045682;28;19917;-68
2023/05/21 05:17:35;;;;;;;;;;;13.40;88.00;;;;;;5032684;28;19913;-66
2023/05/21 05:20:01;;;;;;;;;;;13.50;88.10;;;;;;5027579;28;20003;-67
2023/05/21 05:22:26;;;;;;;;;;;13.50;87.90;;;;;;5045376;28;19921;-67
2023/05/21 05:24:51;;;;;;;;;;;13.50;88.00;;;;;;5045683;28;19913;-66
2023/05/21 05:27:17;;;;;;;;;;;13.50;87.90;;;;;;5045703;28;19916;-66
2023/05/21 05:29:43;;;;;;;;;;;13.50;88.10;;;;;;5045601;28;20629;-67
2023/05/21 05:32:09;;;;;;;;;;;13.50;88.10;;;;;;5045072;28;19983;-67
2023/05/21 05:34:34;;;;;;;;;;;13.60;88.20;;;;;;5045615;28;20027;-67
2023/05/21 05:37:01;;;;;;;;;;;13.60;88.10;;;;;;5027749;28;20031;-67
2023/05/21 05:39:27;;;;;;;;;;;13.60;88.20;;;;;;5045578;28;19913;-67
2023/05/21 05:41:52;;;;;;;;;;;13.60;88.10;;;;;;5045419;28;19919;-66
2023/05/21 05:44:18;;;;;;;;;;;13.60;88.00;;;;;;5045885;28;20012;-66
2023/05/21 05:46:43;;;;;;;;;;;13.60;88.10;;;;;;5045457;28;19979;-67
2023/05/21 05:49:09;;;;;;;;;;;13.70;87.90;;;;;;5045348;28;19948;-66
2023/05/21 05:51:35;;;;;;;;;;;13.70;87.90;;;;;;5045402;28;19973;-67
2023/05/21 05:54:00;;;;;;;;;;;13.70;87.90;;;;;;5045470;28;19916;-66
2023/05/21 05:56:26;;;;;;;;;;;13.70;87.90;;;;;;5045202;28;19920;-67
2023/05/21 05:58:51;;;;;;;;;;;13.70;87.90;;;;;;5027473;28;19912;-67
2023/05/21 06:01:17;;;;;;;;;;;13.80;87.80;;;;;;5045315;28;19945;-67
2023/05/21 06:03:43;;;;;;;;;;;13.80;87.90;;;;;;5044904;28;19928;-67
2023/05/21 06:06:08;;;;;;;;;;;13.80;87.70;;;;;;5027133;28;19916;-66
2023/05/21 06:08:34;;;;;;;;;;;13.80;87.90;;;;;;5044947;28;19919;-67
2023/05/21 06:11:00;;;;;;;;;;;13.80;87.80;;;;;;5047993;28;20552;-67
2023/05/21 06:13:25;;;;;;;;;;;13.90;87.90;;;;;;5047873;28;19991;-67
2023/05/21 06:15:52;;;;;;;;;;;13.90;87.70;;;;;;5048052;28;19916;-67
2023/05/21 06:18:17;;;;;;;;;;;13.90;87.80;;;;;;5047464;28;20377;-67
2023/05/21 06:20:43;;;;;;;;;;;13.90;87.50;;;;;;5048221;28;19973;-67
2023/05/21 06:23:08;;;;;;;;;;;13.90;87.50;;;;;;5048074;28;19917;-66
2023/05/21 06:25:34;;;;;;;;;;;14.00;87.50;;;;;;5047994;28;20015;-67
2023/05/21 06:27:59;;;;;;;;;;;14.00;87.40;;;;;;5048139;28;19920;-66
2023/05/21 06:30:25;;;;;;;;;;;14.10;87.30;;;;;;5048002;28;19909;-67
2023/05/21 06:32:50;;;;;;;;;;;14.10;87.30;;;;;;5047780;28;19948;-67
2023/05/21 06:35:16;;;;;;;;;;;14.10;87.20;;;;;;5048082;28;19913;-67
2023/05/21 06:37:42;;;;;;;;;;;14.10;87.20;;;;;;5048189;28;19959;-67
2023/05/21 06:40:07;;;;;;;;;;;14.20;87.10;;;;;;5047973;28;19913;-67
2023/05/21 06:42:33;;;;;;;;;;;14.20;87.00;;;;;;5047882;28;19965;-67
2023/05/21 06:44:59;;;;;;;;;;;14.20;87.10;;;;;;5048346;28;19920;-67
2023/05/21 06:47:24;;;;;;;;;;;14.20;87.00;;;;;;5048070;28;19951;-66
2023/05/21 06:49:50;;;;;;;;;;;14.30;87.10;;;;;;5048237;28;20410;-67
2023/05/21 06:52:15;;;;;;;;;;;14.30;86.90;;;;;;5047788;28;20327;-67
2023/05/21 06:54:41;;;;;;;;;;;14.30;86.80;;;;;;5048062;28;19965;-67
2023/05/21 06:57:06;;;;;;;;;;;14.40;87.10;;;;;;5030318;28;19913;-67
2023/05/21 06:59:32;;;;;;;;;;;14.40;87.00;;;;;;5047931;28;19959;-67
2023/05/21 07:01:58;;;;;;;;;;;14.40;86.80;;;;;;5047513;28;20674;-67
2023/05/21 07:04:23;;;;;;;;;;;14.50;86.70;;;;;;5047517;28;19913;-67
2023/05/21 07:06:51;;;;;;;;;;;14.50;86.60;;;;;;5047377;28;20019;-67
2023/05/21 07:09:17;;;;;;;;;;;14.50;86.60;;;;;;5029508;28;19973;-67
2023/05/21 07:11:43;;;;;;;;;;;14.60;86.40;;;;;;5046816;28;19928;-67
2023/05/21 07:14:08;;;;;;;;;;;14.60;86.30;;;;;;5047765;28;19959;-67
2023/05/21 07:16:34;;;;;;;;;;;14.70;87.20;;;;;;5043023;28;19952;-66
2023/05/21 07:18:59;;;;;;;;;;;14.70;86.10;;;;;;5047022;28;19917;-67
2023/05/21 07:21:25;;;;;;;;;;;14.70;86.10;;;;;;5046958;28;20528;-67
2023/05/21 07:23:50;;;;;;;;;;;14.80;86.00;;;;;;5047154;28;19920;-67
2023/05/21 07:26:16;;;;;;;;;;;14.80;86.40;;;;;;5047375;28;19912;-67
2023/05/21 07:28:41;;;;;;;;;;;14.80;86.10;;;;;;5047760;28;20328;-67
2023/05/21 07:31:07;;;;;;;;;;;14.80;86.00;;;;;;5047503;28;19917;-67
2023/05/21 07:33:32;;;;;;;;;;;14.90;85.80;;;;;;5047157;28;19920;-67
2023/05/21 07:35:58;;;;;;;;;;;14.90;86.00;;;;;;5047475;28;19912;-67
2023/05/21 07:38:23;;;;;;;;;;;15.00;85.70;;;;;;5047299;28;19952;-67
2023/05/21 07:40:49;;;;;;;;;;;14.90;85.50;;;;;;5047416;28;20250;-67
2023/05/21 07:43:14;;;;;;;;;;;15.00;85.50;;;;;;5029426;28;19909;-67
2023/05/21 07:45:40;;;;;;;;;;;15.00;85.70;;;;;;5047440;28;19969;-67
2023/05/21 07:48:05;;;;;;;;;;;15.10;85.70;;;;;;5047451;28;20366;-67
2023/05/21 07:50:31;;;;;;;;;;;15.10;85.50;;;;;;5047190;28;19913;-67
2023/05/21 07:52:56;;;;;;;;;;;15.10;85.30;;;;;;5046921;28;19909;-67
2023/05/21 07:55:22;;;;;;;;;;;15.20;85.30;;;;;;5047053;28;19913;-67
2023/05/21 07:57:48;;;;;;;;;;;15.20;85.30;;;;;;5029285;28;20398;-67
2023/05/21 08:00:14;;;;;;;;;;;15.20;85.10;;;;;;5047110;28;19962;-67
2023/05/21 08:02:39;;;;;;;;;;;15.30;85.20;;;;;;5046622;28;19919;-67
2023/05/21 08:05:05;;;;;;;;;;;15.30;85.00;;;;;;5046610;28;19916;-67
2023/05/21 08:07:31;;;;;;;;;;;15.30;84.80;;;;;;5046892;28;19917;-67
2023/05/21 08:09:57;;;;;;;;;;;15.40;84.90;;;;;;5046990;28;19913;-67
2023/05/21 08:12:22;;;;;;;;;;;15.40;84.80;;;;;;5046706;28;19954;-67
2023/05/21 08:14:48;;;;;;;;;;;15.40;84.70;;;;;;5046772;28;20369;-67
2023/05/21 08:17:13;;;;;;;;;;;15.50;84.60;;;;;;5046276;28;19966;-67
2023/05/21 08:19:39;;;;;;;;;;;15.50;84.80;;;;;;5046442;28;20458;-68
2023/05/21 08:22:07;;;;;;;;;;;15.60;84.50;;;;;;5046503;28;20358;-67
2023/05/21 08:24:33;;;;;;;;;;;15.70;84.40;;;;;;5046841;28;19913;-67
2023/05/21 08:26:59;;;;;;;;;;;15.70;84.60;;;;;;5047021;28;19919;-67
2023/05/21 08:29:24;;;;;;;;;;;15.80;84.30;;;;;;5046980;28;20414;-67
2023/05/21 08:31:50;;;;;;;;;;;15.80;83.90;;;;;;5046088;28;20008;-66
2023/05/21 08:34:17;;;;;;;;;;;15.90;84.20;;;;;;5046102;28;19948;-67
2023/05/21 08:36:44;;;;;;;;;;;16.00;84.20;;;;;;5046383;28;19917;-67
2023/05/21 08:39:11;;;;;;;;;;;16.00;84.10;;;;;;5046925;28;19908;-67
2023/05/21 08:41:37;;;;;;;;;;;16.10;83.50;;;;;;5046544;28;19999;-67
2023/05/21 08:44:03;;;;;;;;;;;16.10;83.40;;;;;;5046260;28;19913;-67
2023/05/21 08:46:31;;;;;;;;;;;16.20;83.30;;;;;;5046172;28;19913;-67
2023/05/21 08:48:57;;;;;;;;;;;16.30;83.70;;;;;;5046037;28;20365;-67
2023/05/21 08:51:23;;;;;;;;;;;16.30;83.40;;;;;;5046295;28;20708;-66
2023/05/21 08:53:49;;;;;;;;;;;16.40;83.80;;;;;;5045374;28;19917;-66
2023/05/21 08:56:16;;;;;;;;;;;16.40;83.30;;;;;;5045730;28;19955;-66
2023/05/21 08:58:43;;;;;;;;;;;16.50;83.60;;;;;;5045744;28;19916;-66
2023/05/21 09:01:09;;;;;;;;;;;16.50;83.50;;;;;;5045689;28;19913;-66
2023/05/21 09:03:38;;;;;;;;;;;16.60;83.50;;;;;;5045812;28;20388;-66
2023/05/21 09:06:04;;;;;;;;;;;16.60;83.60;;;;;;5046038;28;19920;-66
2023/05/21 09:08:34;;;;;;;;;;;16.60;83.70;;;;;;5028252;28;19948;-66
2023/05/21 09:11:00;;;;;;;;;;;16.70;83.90;;;;;;5046080;28;19917;-66
2023/05/21 09:13:26;;;;;;;;;;;16.70;83.70;;;;;;5045837;28;19920;-67
2023/05/21 09:15:51;;;;;;;;;;;16.80;83.60;;;;;;5045892;28;19916;-67
2023/05/21 09:18:17;;;;;;;;;;;16.80;83.30;;;;;;5045271;28;20557;-67
2023/05/21 09:20:43;;;;;;;;;;;16.90;83.20;;;;;;5027849;28;20280;-66
2023/05/21 09:23:15;;;;;;;;;;;16.90;82.90;;;;;;5045116;28;19913;-67
2023/05/21 09:25:43;;;;;;;;;;;17.00;82.80;;;;;;5045857;28;20000;-66
2023/05/21 09:28:13;;;;;;;;;;;17.00;82.80;;;;;;5045577;28;19956;-66
2023/05/21 09:30:44;;;;;;;;;;;17.10;82.60;;;;;;5045726;28;19910;-66
2023/05/21 09:33:10;;;;;;;;;;;17.10;82.70;;;;;;5027442;28;19913;-67
2023/05/21 09:35:37;;;;;;;;;;;17.10;82.30;;;;;;5045790;28;20003;-67
2023/05/21 09:38:07;;;;;;;;;;;17.20;82.40;;;;;;5045725;28;19992;-66
2023/05/21 09:40:33;;;;;;;;;;;17.20;82.70;;;;;;5045594;28;19913;-67
2023/05/21 09:42:59;;;;;;;;;;;17.30;82.90;;;;;;5045575;28;19912;-67
2023/05/21 09:45:25;;;;;;;;;;;17.30;83.30;;;;;;5044393;28;19920;-67
2023/05/21 09:47:52;;;;;;;;;;;17.30;83.10;;;;;;5045483;28;19940;-67
2023/05/21 09:50:19;;;;;;;;;;;17.30;82.90;;;;;;5045643;28;20281;-67
2023/05/21 09:52:45;;;;;;;;;;;17.40;82.70;;;;;;5045031;28;19920;-67
2023/05/21 09:55:11;;;;;;;;;;;17.40;82.60;;;;;;5027327;28;19913;-67
2023/05/21 09:57:44;;;;;;;;;;;17.40;82.70;;;;;;5045320;28;19909;-67
2023/05/21 10:00:21;;;;;;;;;;;17.50;82.30;;;;;;5027177;28;19909;-67
2023/05/21 10:02:47;;;;;;;;;;;17.50;82.50;;;;;;5044706;28;19913;-67
2023/05/21 10:05:13;;;;;;;;;;;17.60;82.90;;;;;;5045069;28;20450;-67
2023/05/21 10:07:41;;;;;;;;;;;17.70;82.40;;;;;;5045239;28;20000;-66
2023/05/21 10:10:10;;;;;;;;;;;17.70;82.10;;;;;;5027242;28;20003;-67
2023/05/21 10:12:35;;;;;;;;;;;17.80;82.30;;;;;;5027100;28;20462;-67
2023/05/21 10:15:07;;;;;;;;;;;17.80;82.10;;;;;;5045231;28;19982;-67
2023/05/21 10:17:32;;;;;;;;;;;17.90;81.90;;;;;;5044284;28;19913;-67
2023/05/21 10:19:58;;;;;;;;;;;18.00;82.00;;;;;;5010630;28;19938;-67
2023/05/21 10:22:24;;;;;;;;;;;18.00;81.80;;;;;;5044180;28;19920;-67
2023/05/21 10:24:51;;;;;;;;;;;18.10;81.70;;;;;;5044915;28;19909;-67
2023/05/21 10:27:16;;;;;;;;;;;18.20;81.70;;;;;;5044632;28;19917;-67
2023/05/21 10:29:43;;;;;;;;;;;18.20;81.50;;;;;;5040723;28;19919;-67
2023/05/21 10:32:10;;;;;;;;;;;18.20;81.70;;;;;;5044602;28;19913;-67
2023/05/21 10:34:36;;;;;;;;;;;18.30;81.30;;;;;;5045095;28;20330;-67
2023/05/21 10:37:03;;;;;;;;;;;18.40;81.40;;;;;;5044887;28;20369;-67
2023/05/21 10:39:29;;;;;;;;;;;18.40;81.40;;;;;;5045116;28;20322;-67
2023/05/21 10:42:18;;;;;;;;;;;18.50;81.30;;;;;;5044764;28;19909;-67
2023/05/21 10:45:02;;;;;;;;;;;18.50;81.00;;;;;;5025252;28;19952;-67
2023/05/21 10:47:48;;;;;;;;;;;18.50;81.00;;;;;;5044656;28;19977;-67
2023/05/21 10:50:25;;;;;;;;;;;18.60;81.70;;;;;;5003214;28;19913;-67
2023/05/21 10:52:58;;;;;;;;;;;18.60;81.60;;;;;;5044371;28;19908;-66
2023/05/21 10:55:43;;;;;;;;;;;18.70;81.50;;;;;;5045238;28;19965;-67
2023/05/21 10:58:21;;;;;;;;;;;18.70;81.40;;;;;;5048214;28;20595;-67
2023/05/21 11:00:46;;;;;;;;;;;18.70;81.00;;;;;;5048376;28;20020;-67
2023/05/21 11:03:12;;;;;;;;;;;18.80;81.10;;;;;;5029712;28;20591;-67
2023/05/21 11:05:39;;;;;;;;;;;18.90;81.50;;;;;;5048056;28;20314;-67
2023/05/21 11:08:04;;;;;;;;;;;18.90;81.10;;;;;;5029817;28;19921;-67
2023/05/21 11:10:31;;;;;;;;;;;18.90;81.10;;;;;;5048009;28;19917;-67
2023/05/21 11:13:07;;;;;;;;;;;19.00;80.90;;;;;;5047714;28;19912;-67
2023/05/21 11:15:51;;;;;;;;;;;19.00;80.60;;;;;;5047822;28;20009;-67
2023/05/21 11:18:17;;;;;;;;;;;19.10;80.60;;;;;;5043947;28;20012;-67
2023/05/21 11:20:43;;;;;;;;;;;19.20;80.60;;;;;;5047768;28;20003;-67
2023/05/21 11:23:10;;;;;;;;;;;19.30;80.30;;;;;;5047189;28;19948;-67
2023/05/21 11:25:35;;;;;;;;;;;19.30;80.30;;;;;;5047734;28;20408;-67
2023/05/21 11:28:04;;;;;;;;;;;19.40;80.20;;;;;;5047741;28;19959;-67
2023/05/21 11:30:29;;;;;;;;;;;19.50;79.90;;;;;;5047657;28;19996;-67
2023/05/21 11:33:09;;;;;;;;;;;19.60;80.00;;;;;;5047451;28;20495;-67
2023/05/21 11:35:35;;;;;;;;;;;19.70;79.90;;;;;;5047665;28;19915;-67
2023/05/21 11:38:00;;;;;;;;;;;19.80;79.80;;;;;;5029563;28;20031;-67
2023/05/21 11:40:27;;;;;;;;;;;19.80;79.60;;;;;;5047557;28;19916;-67
2023/05/21 11:42:53;;;;;;;;;;;19.90;79.30;;;;;;5047370;28;20369;-67
2023/05/21 11:45:19;;;;;;;;;;;19.90;79.20;;;;;;5047410;28;19913;-67
2023/05/21 11:47:46;;;;;;;;;;;20.00;79.10;;;;;;5047217;28;19917;-67
2023/05/21 11:50:13;;;;;;;;;;;20.10;79.30;;;;;;5029427;28;19909;-67
2023/05/21 11:52:39;;;;;;;;;;;20.10;79.00;;;;;;5047066;28;19944;-67
2023/05/21 11:55:06;;;;;;;;;;;20.20;79.00;;;;;;5047342;28;19916;-67
2023/05/21 11:57:31;;;;;;;;;;;20.30;79.60;;;;;;5047572;28;19923;-67
2023/05/21 11:59:58;;;;;;;;;;;20.30;79.40;;;;;;5047466;28;19913;-67
2023/05/21 12:02:24;;;;;;;;;;;20.40;79.30;;;;;;5046929;28;20292;-67
2023/05/21 12:04:50;;;;;;;;;;;20.40;79.10;;;;;;5046592;28;19969;-67
2023/05/21 12:07:17;;;;;;;;;;;20.50;79.10;;;;;;5045774;28;20416;-67
2023/05/21 12:09:44;;;;;;;;;;;20.60;78.90;;;;;;5028915;28;19919;-67
2023/05/21 12:12:12;;;;;;;;;;;20.60;78.90;;;;;;5046550;28;19917;-67
2023/05/21 12:14:37;;;;;;;;;;;20.60;79.10;;;;;;5046925;28;19919;-67
2023/05/21 12:17:03;;;;;;;;;;;20.70;79.30;;;;;;5046374;28;19913;-67
2023/05/21 12:19:35;;;;;;;;;;;20.70;79.40;;;;;;5046588;28;20013;-67
2023/05/21 12:22:01;;;;;;;;;;;20.70;79.20;;;;;;5028533;28;19921;-67
2023/05/21 12:24:27;;;;;;;;;;;20.80;79.30;;;;;;5046566;28;19917;-67
2023/05/21 12:26:53;;;;;;;;;;;20.80;79.70;;;;;;5028688;28;19923;-67
2023/05/21 12:29:19;;;;;;;;;;;20.90;79.60;;;;;;5046448;28;19987;-67
2023/05/21 12:31:48;;;;;;;;;;;21.00;79.30;;;;;;5046249;28;20069;-67
2023/05/21 12:34:17;;;;;;;;;;;21.10;79.20;;;;;;5046609;28;20545;-68
2023/05/21 12:36:47;;;;;;;;;;;21.20;78.80;;;;;;5046700;28;19920;-67
2023/05/21 12:39:13;;;;;;;;;;;21.20;78.80;;;;;;5046544;28;19909;-67
2023/05/21 12:41:38;;;;;;;;;;;21.20;79.30;;;;;;5046409;28;20362;-67
2023/05/21 12:44:04;;;;;;;;;;;21.20;79.80;;;;;;5028911;28;19916;-67
2023/05/21 12:46:30;;;;;;;;;;;21.20;80.00;;;;;;5028601;28;19921;-67
2023/05/21 12:48:55;;;;;;;;;;;21.30;79.80;;;;;;5046583;28;19916;-67
2023/05/21 12:51:21;;;;;;;;;;;21.30;79.70;;;;;;5028666;28;19913;-67
2023/05/21 12:53:46;;;;;;;;;;;21.30;79.50;;;;;;5028250;28;19912;-68
2023/05/21 12:56:12;;;;;;;;;;;21.30;79.60;;;;;;5028156;28;19916;-67
2023/05/21 12:58:38;;;;;;;;;;;21.40;79.50;;;;;;5046226;28;19966;-67
2023/05/21 13:01:08;;;;;;;;;;;21.40;80.00;;;;;;5046172;28;19920;-67
2023/05/21 13:03:34;;;;;;;;;;;21.50;80.20;;;;;;5045078;28;19912;-67
2023/05/21 13:06:00;;;;;;;;;;;21.60;80.20;;;;;;5045660;28;20376;-68
2023/05/21 13:08:25;;;;;;;;;;;21.60;80.40;;;;;;5045256;28;19952;-67
2023/05/21 13:10:51;;;;;;;;;;;21.70;80.00;;;;;;5045864;28;19912;-67
2023/05/21 13:13:16;;;;;;;;;;;21.80;79.10;;;;;;5045939;28;19991;-67
2023/05/21 13:15:42;;;;;;;;;;;21.90;79.30;;;;;;5046027;28;20429;-67
2023/05/21 13:18:08;;;;;;;;;;;21.90;79.10;;;;;;5041573;28;19952;-67
2023/05/21 13:20:33;;;;;;;;;;;21.90;78.90;;;;;;5045363;28;19916;-67
2023/05/21 13:22:59;;;;;;;;;;;22.00;78.90;;;;;;5030316;28;19949;-67
2023/05/21 13:25:27;;;;;;;;;;;22.10;78.70;;;;;;5045592;28;20358;-68
2023/05/21 13:27:53;;;;;;;;;;;22.20;78.10;;;;;;5046009;28;19924;-68
2023/05/21 13:30:19;;;;;;;;;;;22.40;78.30;;;;;;5045848;28;19927;-67
2023/05/21 13:32:45;;;;;;;;;;;22.50;78.60;;;;;;5045418;28;20284;-68
2023/05/21 13:35:10;;;;;;;;;;;22.60;78.00;;;;;;5045810;28;19913;-68
2023/05/21 13:37:37;;;;;;;;;;;22.60;78.60;;;;;;5045647;28;19913;-67
2023/05/21 13:40:04;;;;;;;;;;;22.80;77.90;;;;;;5045693;28;19920;-67
2023/05/21 13:42:30;;;;;;;;;;;22.90;77.50;;;;;;5045338;28;19917;-68
2023/05/21 13:44:55;;;;;;;;;;;22.90;77.30;;;;;;5045659;28;19924;-67
2023/05/21 13:47:21;;;;;;;;;;;23.00;77.30;;;;;;5044992;28;19965;-68
2023/05/21 13:49:46;;;;;;;;;;;23.00;77.50;;;;;;5044997;28;19995;-68
2023/05/21 13:52:12;;;;;;;;;;;23.10;77.70;;;;;;5044526;28;19957;-68
2023/05/21 13:54:38;;;;;;;;;;;23.10;78.00;;;;;;5045136;28;19913;-68
2023/05/21 13:57:03;;;;;;;;;;;23.20;78.40;;;;;;5045390;28;20000;-67
2023/05/21 13:59:29;;;;;;;;;;;23.30;78.10;;;;;;5045032;28;20183;-68
2023/05/21 14:01:55;;;;;;;;;;;23.30;78.30;;;;;;5044717;28;19921;-68
2023/05/21 14:04:20;;;;;;;;;;;23.40;78.30;;;;;;5039306;28;19913;-67
2023/05/21 14:06:46;;;;;;;;;;;23.40;78.00;;;;;;5045133;28;19992;-68
2023/05/21 14:09:12;;;;;;;;;;;23.50;78.20;;;;;;5045075;28;19953;-67
2023/05/21 14:11:37;;;;;;;;;;;23.60;77.80;;;;;;5045089;28;20367;-68